createdAt,value
2016-08-14T00:00:12.283Z,0.51507
2016-08-14T00:00:27.155Z,0.52989
2016-08-14T00:00:41.286Z,0.51507
2016-08-14T00:00:56.172Z,0.51013
2016-08-14T00:01:10.287Z,0.51013
2016-08-14T00:01:24.407Z,0.51013
2016-08-14T00:01:38.554Z,0.51507
2016-08-14T00:01:53.417Z,0.51507
2016-08-14T00:02:06.785Z,0.52001
2016-08-14T00:02:18.665Z,0.52001
2016-08-14T00:02:30.629Z,0.52001
2016-08-14T00:02:44.755Z,0.52495
2016-08-14T00:02:59.626Z,0.52495
2016-08-14T00:03:12.996Z,0.52989
2016-08-14T00:03:26.359Z,0.53978
2016-08-14T00:03:41.969Z,0.53978
2016-08-14T00:03:56.841Z,0.53978
2016-08-14T00:04:10.203Z,0.53978
2016-08-14T00:04:23.587Z,0.53978
2016-08-14T00:04:37.717Z,0.53978
2016-08-14T00:04:51.081Z,0.53978
2016-08-14T00:05:06.695Z,0.53978
2016-08-14T00:05:20.822Z,0.53978
2016-08-14T00:05:34.948Z,0.53484
2016-08-14T00:05:48.311Z,0.53484
2016-08-14T00:06:01.695Z,0.53484
2016-08-14T00:06:14.306Z,0.52989
2016-08-14T00:06:28.424Z,0.52989
2016-08-14T00:06:40.308Z,0.52495
2016-08-14T00:06:53.673Z,0.52495
2016-08-14T00:07:07.043Z,0.52495
2016-08-14T00:07:19.676Z,0.54472
2016-08-14T00:07:33.047Z,0.52495
2016-08-14T00:07:45.663Z,0.52495
2016-08-14T00:07:59.797Z,0.52989
2016-08-14T00:08:12.439Z,0.52989
2016-08-14T00:08:25.815Z,0.52989
2016-08-14T00:08:40.691Z,0.52495
2016-08-14T00:08:52.547Z,0.53978
2016-08-14T00:09:06.676Z,0.52495
2016-08-14T00:09:20.047Z,0.52495
2016-08-14T00:09:34.163Z,0.52495
2016-08-14T00:09:49.024Z,0.52495
2016-08-14T00:10:01.658Z,0.52495
2016-08-14T00:10:15.803Z,0.52001
2016-08-14T00:10:29.924Z,0.52001
2016-08-14T00:10:41.811Z,0.52001
2016-08-14T00:10:56.685Z,0.51507
2016-08-14T00:11:11.556Z,0.51507
2016-08-14T00:11:25.693Z,0.51507
2016-08-14T00:11:37.551Z,0.51507
2016-08-14T00:11:49.409Z,0.51013
2016-08-14T00:12:04.277Z,0.51013
2016-08-14T00:12:16.968Z,0.51013
2016-08-14T00:12:29.589Z,0.51507
2016-08-14T00:12:42.996Z,0.51507
2016-08-14T00:12:56.365Z,0.51507
2016-08-14T00:13:08.221Z,0.51507
2016-08-14T00:13:20.852Z,0.51507
2016-08-14T00:13:35.742Z,0.51013
2016-08-14T00:13:47.606Z,0.51013
2016-08-14T00:14:00.967Z,0.51013
2016-08-14T00:14:12.082Z,0.51507
2016-08-14T00:14:26.217Z,0.51507
2016-08-14T00:14:38.835Z,0.51013
2016-08-14T00:14:52.212Z,0.51013
2016-08-14T00:15:04.827Z,0.51013
2016-08-14T00:15:18.264Z,0.51013
2016-08-14T00:15:32.390Z,0.50519
2016-08-14T00:15:47.250Z,0.50519
2016-08-14T00:16:01.381Z,0.50026
2016-08-14T00:16:15.503Z,0.50026
2016-08-14T00:16:28.884Z,0.50026
2016-08-14T00:16:43.760Z,0.50026
2016-08-14T00:16:57.867Z,0.50519
2016-08-14T00:17:12.730Z,0.50519
2016-08-14T00:17:24.630Z,0.50519
2016-08-14T00:17:38.741Z,0.50519
2016-08-14T00:17:53.606Z,0.51013
2016-08-14T00:18:07.777Z,0.51013
2016-08-14T00:18:21.896Z,0.51013
2016-08-14T00:18:36.032Z,0.51013
2016-08-14T00:18:47.129Z,0.51013
2016-08-14T00:19:00.507Z,0.51013
2016-08-14T00:19:13.882Z,0.51013
2016-08-14T00:19:27.244Z,0.51013
2016-08-14T00:19:41.359Z,0.51013
2016-08-14T00:19:55.480Z,0.51013
2016-08-14T00:20:08.865Z,0.51013
2016-08-14T00:20:23.727Z,0.51013
2016-08-14T00:20:35.612Z,0.51507
2016-08-14T00:20:48.291Z,0.51507
2016-08-14T00:21:00.898Z,0.51013
2016-08-14T00:21:15.775Z,0.51507
2016-08-14T00:21:27.651Z,0.51507
2016-08-14T00:21:41.023Z,0.52495
2016-08-14T00:21:54.384Z,0.51507
2016-08-14T00:22:08.531Z,0.51507
2016-08-14T00:22:22.658Z,0.51013
2016-08-14T00:22:33.788Z,0.51013
2016-08-14T00:22:48.653Z,0.51013
2016-08-14T00:23:01.287Z,0.51013
2016-08-14T00:23:14.658Z,0.51013
2016-08-14T00:23:28.020Z,0.50519
2016-08-14T00:23:41.428Z,0.50519
2016-08-14T00:23:53.299Z,0.50519
2016-08-14T00:24:04.771Z,0.49532
2016-08-14T00:24:18.886Z,0.49532
2016-08-14T00:24:30.019Z,0.49532
2016-08-14T00:24:43.406Z,0.49532
2016-08-14T00:24:56.790Z,0.49532
2016-08-14T00:25:10.912Z,0.49532
2016-08-14T00:25:25.042Z,0.49532
2016-08-14T00:25:38.421Z,0.49532
2016-08-14T00:25:51.799Z,0.49532
2016-08-14T00:26:05.180Z,0.49532
2016-08-14T00:26:19.321Z,0.49532
2016-08-14T00:26:31.926Z,0.49532
2016-08-14T00:26:43.820Z,0.49532
2016-08-14T00:26:55.698Z,0.48544
2016-08-14T00:27:08.306Z,0.49038
2016-08-14T00:27:20.167Z,0.49038
2016-08-14T00:27:35.056Z,0.48544
2016-08-14T00:27:47.666Z,0.48544
2016-08-14T00:27:59.541Z,0.48544
2016-08-14T00:28:12.942Z,0.49038
2016-08-14T00:28:24.068Z,0.50026
2016-08-14T00:28:37.429Z,0.4805
2016-08-14T00:28:50.066Z,0.4805
2016-08-14T00:29:03.466Z,0.4805
2016-08-14T00:29:18.347Z,0.4805
2016-08-14T00:29:32.467Z,0.47557
2016-08-14T00:29:45.103Z,0.47557
2016-08-14T00:29:58.483Z,0.47557
2016-08-14T00:30:10.359Z,0.47557
2016-08-14T00:30:22.209Z,0.47557
2016-08-14T00:30:37.082Z,0.47557
2016-08-14T00:30:51.202Z,0.47557
2016-08-14T00:31:06.079Z,0.47557
2016-08-14T00:31:17.199Z,0.47557
2016-08-14T00:31:31.311Z,0.47063
2016-08-14T00:31:45.434Z,0.47063
2016-08-14T00:31:59.558Z,0.47063
2016-08-14T00:32:13.696Z,0.46569
2016-08-14T00:32:27.808Z,0.47063
2016-08-14T00:32:41.924Z,0.46569
2016-08-14T00:32:56.792Z,0.48544
2016-08-14T00:33:10.170Z,0.46569
2016-08-14T00:33:24.308Z,0.47063
2016-08-14T00:33:39.191Z,0.47063
2016-08-14T00:33:54.057Z,0.46569
2016-08-14T00:34:08.934Z,0.47063
2016-08-14T00:34:23.802Z,0.49038
2016-08-14T00:34:37.918Z,0.47557
2016-08-14T00:34:52.032Z,0.4805
2016-08-14T00:35:04.671Z,0.4805
2016-08-14T00:35:19.547Z,0.4805
2016-08-14T00:35:32.161Z,0.48544
2016-08-14T00:35:44.797Z,0.48544
2016-08-14T00:35:57.407Z,0.48544
2016-08-14T00:36:10.793Z,0.48544
2016-08-14T00:36:24.169Z,0.50519
2016-08-14T00:36:35.296Z,0.48544
2016-08-14T00:36:48.708Z,0.48544
2016-08-14T00:37:02.081Z,0.48544
2016-08-14T00:37:13.964Z,0.48544
2016-08-14T00:37:28.091Z,0.4805
2016-08-14T00:37:39.944Z,0.4805
2016-08-14T00:37:54.071Z,0.4805
2016-08-14T00:38:06.685Z,0.4805
2016-08-14T00:38:20.802Z,0.47557
2016-08-14T00:38:36.422Z,0.49038
2016-08-14T00:38:51.302Z,0.47063
2016-08-14T00:39:04.682Z,0.47063
2016-08-14T00:39:19.556Z,0.47063
2016-08-14T00:39:33.690Z,0.47063
2016-08-14T00:39:46.300Z,0.47063
2016-08-14T00:39:58.153Z,0.47063
2016-08-14T00:40:10.767Z,0.47063
2016-08-14T00:40:24.125Z,0.47063
2016-08-14T00:40:38.236Z,0.47063
2016-08-14T00:40:51.596Z,0.46569
2016-08-14T00:41:06.486Z,0.46076
2016-08-14T00:41:18.397Z,0.46569
2016-08-14T00:41:31.779Z,0.46076
2016-08-14T00:41:45.169Z,0.46076
2016-08-14T00:41:59.328Z,0.46076
2016-08-14T00:42:12.715Z,0.45582
2016-08-14T00:42:23.821Z,0.47557
2016-08-14T00:42:37.182Z,0.45088
2016-08-14T00:42:50.551Z,0.45088
2016-08-14T00:43:04.655Z,0.45088
2016-08-14T00:43:17.263Z,0.44595
2016-08-14T00:43:30.641Z,0.44595
2016-08-14T00:43:44.758Z,0.44102
2016-08-14T00:43:58.342Z,0.46076
2016-08-14T00:44:11.728Z,0.44102
2016-08-14T00:44:25.846Z,0.43608
2016-08-14T00:44:39.229Z,0.43608
2016-08-14T00:44:51.108Z,0.43608
2016-08-14T00:45:03.727Z,0.43115
2016-08-14T00:45:18.591Z,0.43115
2016-08-14T00:45:32.711Z,0.43115
2016-08-14T00:45:43.085Z,0.43115
2016-08-14T00:45:56.493Z,0.43608
2016-08-14T00:46:09.857Z,0.45582
2016-08-14T00:46:20.987Z,0.43608
2016-08-14T00:46:35.850Z,0.43608
2016-08-14T00:46:49.963Z,0.44102
2016-08-14T00:47:02.590Z,0.44102
2016-08-14T00:47:15.951Z,0.44102
2016-08-14T00:47:28.570Z,0.44102
2016-08-14T00:47:42.682Z,0.44595
2016-08-14T00:47:56.048Z,0.44102
2016-08-14T00:48:10.167Z,0.44102
2016-08-14T00:48:24.312Z,0.44102
2016-08-14T00:48:39.182Z,0.44595
2016-08-14T00:48:52.574Z,0.44595
2016-08-14T00:49:05.180Z,0.44595
2016-08-14T00:49:20.049Z,0.45088
2016-08-14T00:49:33.421Z,0.45088
2016-08-14T00:49:46.031Z,0.45088
2016-08-14T00:50:01.664Z,0.45088
2016-08-14T00:50:14.277Z,0.45088
2016-08-14T00:50:27.681Z,0.45088
2016-08-14T00:50:41.072Z,0.47557
2016-08-14T00:50:55.950Z,0.45582
2016-08-14T00:51:10.064Z,0.45582
2016-08-14T00:51:24.177Z,0.45582
2016-08-14T00:51:36.786Z,0.45582
2016-08-14T00:51:50.904Z,0.45582
2016-08-14T00:52:04.262Z,0.45582
2016-08-14T00:52:18.391Z,0.45582
2016-08-14T00:52:32.532Z,0.45582
2016-08-14T00:52:45.919Z,0.45582
2016-08-14T00:53:00.068Z,0.45582
2016-08-14T00:53:12.700Z,0.45582
2016-08-14T00:53:25.346Z,0.45582
2016-08-14T00:53:37.235Z,0.46076
2016-08-14T00:53:51.360Z,0.46076
2016-08-14T00:54:06.239Z,0.46569
2016-08-14T00:54:19.626Z,0.47063
2016-08-14T00:54:31.487Z,0.47063
2016-08-14T00:54:45.637Z,0.47557
2016-08-14T00:54:58.293Z,0.47557
2016-08-14T00:55:13.162Z,0.47557
2016-08-14T00:55:25.046Z,0.4805
2016-08-14T00:55:37.665Z,0.4805
2016-08-14T00:55:51.038Z,0.4805
2016-08-14T00:56:03.666Z,0.4805
2016-08-14T00:56:16.297Z,0.4805
2016-08-14T00:56:31.162Z,0.4805
2016-08-14T00:56:41.514Z,0.4805
2016-08-14T00:56:54.874Z,0.4805
2016-08-14T00:57:07.513Z,0.4805
2016-08-14T00:57:23.133Z,0.4805
2016-08-14T00:57:37.262Z,0.4805
2016-08-14T00:57:51.410Z,0.47557
2016-08-14T00:58:05.548Z,0.4805
2016-08-14T00:58:18.922Z,0.47557
2016-08-14T00:58:31.562Z,0.47063
2016-08-14T00:58:46.468Z,0.47063
2016-08-14T00:58:59.856Z,0.47063
2016-08-14T00:59:12.473Z,0.47063
2016-08-14T00:59:25.099Z,0.47063
2016-08-14T00:59:37.717Z,0.47063
2016-08-14T00:59:52.623Z,0.46569
2016-08-14T01:00:06.003Z,0.46569
2016-08-14T01:00:19.382Z,0.46076
2016-08-14T01:00:34.996Z,0.4805
2016-08-14T01:00:49.125Z,0.46076
2016-08-14T01:01:02.524Z,0.45582
2016-08-14T01:01:15.923Z,0.45582
2016-08-14T01:01:29.292Z,0.45582
2016-08-14T01:01:43.431Z,0.46076
2016-08-14T01:01:57.539Z,0.46569
2016-08-14T01:02:10.894Z,0.47063
2016-08-14T01:02:25.002Z,0.4805
2016-08-14T01:02:36.893Z,0.48544
2016-08-14T01:02:49.521Z,0.49532
2016-08-14T01:03:02.146Z,0.52001
2016-08-14T01:03:14.772Z,0.51507
2016-08-14T01:03:28.880Z,0.51507
2016-08-14T01:03:41.516Z,0.52001
2016-08-14T01:03:55.632Z,0.52495
2016-08-14T01:04:10.499Z,0.52495
2016-08-14T01:04:24.635Z,0.52495
2016-08-14T01:04:38.014Z,0.52495
2016-08-14T01:04:51.397Z,0.52495
2016-08-14T01:05:04.764Z,0.52495
2016-08-14T01:05:17.366Z,0.52495
2016-08-14T01:05:29.985Z,0.52495
2016-08-14T01:05:44.850Z,0.52495
2016-08-14T01:05:57.475Z,0.52495
2016-08-14T01:06:11.610Z,0.52989
2016-08-14T01:06:24.230Z,0.53484
2016-08-14T01:06:37.591Z,0.53484
2016-08-14T01:06:49.453Z,0.53484
2016-08-14T01:07:02.842Z,0.53484
2016-08-14T01:07:16.205Z,0.53484
2016-08-14T01:07:28.071Z,0.52989
2016-08-14T01:07:42.182Z,0.52495
2016-08-14T01:07:57.060Z,0.52495
2016-08-14T01:08:10.427Z,0.52495
2016-08-14T01:08:20.786Z,0.52495
2016-08-14T01:08:34.148Z,0.52495
2016-08-14T01:08:48.271Z,0.52495
2016-08-14T01:09:01.652Z,0.52495
2016-08-14T01:09:15.073Z,0.52495
2016-08-14T01:09:27.712Z,0.54472
2016-08-14T01:09:43.333Z,0.52495
2016-08-14T01:09:57.475Z,0.52495
2016-08-14T01:10:11.594Z,0.52001
2016-08-14T01:10:24.230Z,0.52001
2016-08-14T01:10:37.596Z,0.52001
2016-08-14T01:10:50.998Z,0.51507
2016-08-14T01:11:03.612Z,0.51507
2016-08-14T01:11:17.730Z,0.51507
2016-08-14T01:11:32.608Z,0.51013
2016-08-14T01:11:48.220Z,0.50519
2016-08-14T01:12:03.090Z,0.50519
2016-08-14T01:12:16.454Z,0.50519
2016-08-14T01:12:29.084Z,0.52495
2016-08-14T01:12:42.450Z,0.50519
2016-08-14T01:12:57.318Z,0.50519
2016-08-14T01:13:09.940Z,0.50519
2016-08-14T01:13:24.050Z,0.50519
2016-08-14T01:13:38.199Z,0.52001
2016-08-14T01:13:52.317Z,0.50519
2016-08-14T01:14:04.944Z,0.50519
2016-08-14T01:14:19.056Z,0.51013
2016-08-14T01:14:33.935Z,0.51507
2016-08-14T01:14:46.584Z,0.51507
2016-08-14T01:14:59.978Z,0.51507
2016-08-14T01:15:14.093Z,0.52001
2016-08-14T01:15:26.716Z,0.52001
2016-08-14T01:15:40.824Z,0.52001
2016-08-14T01:15:53.442Z,0.52001
2016-08-14T01:16:07.564Z,0.52001
2016-08-14T01:16:20.172Z,0.52001
2016-08-14T01:16:34.279Z,0.52495
2016-08-14T01:16:48.417Z,0.52495
2016-08-14T01:17:01.064Z,0.52001
2016-08-14T01:17:13.674Z,0.52495
2016-08-14T01:17:27.062Z,0.52495
2016-08-14T01:17:41.953Z,0.52495
2016-08-14T01:17:54.587Z,0.52495
2016-08-14T01:18:08.707Z,0.52495
2016-08-14T01:18:20.573Z,0.52495
2016-08-14T01:18:33.195Z,0.52495
2016-08-14T01:18:46.563Z,0.52495
2016-08-14T01:18:58.427Z,0.52495
2016-08-14T01:19:11.807Z,0.52495
2016-08-14T01:19:25.195Z,0.52495
2016-08-14T01:19:39.328Z,0.52495
2016-08-14T01:19:53.462Z,0.52495
2016-08-14T01:20:07.597Z,0.52495
2016-08-14T01:20:20.984Z,0.51507
2016-08-14T01:20:34.359Z,0.53484
2016-08-14T01:20:46.970Z,0.51507
2016-08-14T01:21:01.086Z,0.51507
2016-08-14T01:21:11.458Z,0.51507
2016-08-14T01:21:25.572Z,0.51507
2016-08-14T01:21:39.682Z,0.51507
2016-08-14T01:21:52.318Z,0.52495
2016-08-14T01:22:05.698Z,0.51507
2016-08-14T01:22:19.823Z,0.51507
2016-08-14T01:22:33.210Z,0.51507
2016-08-14T01:22:47.322Z,0.51507
2016-08-14T01:23:01.450Z,0.51507
2016-08-14T01:23:15.576Z,0.51013
2016-08-14T01:23:30.444Z,0.51013
2016-08-14T01:23:46.063Z,0.50519
2016-08-14T01:24:00.205Z,0.50519
2016-08-14T01:24:15.825Z,0.50026
2016-08-14T01:24:29.940Z,0.49532
2016-08-14T01:24:42.553Z,0.49532
2016-08-14T01:24:58.172Z,0.49038
2016-08-14T01:25:11.581Z,0.49038
2016-08-14T01:25:26.445Z,0.48544
2016-08-14T01:25:37.553Z,0.48544
2016-08-14T01:25:50.185Z,0.48544
2016-08-14T01:26:05.103Z,0.4805
2016-08-14T01:26:19.975Z,0.4805
2016-08-14T01:26:34.833Z,0.4805
2016-08-14T01:26:47.464Z,0.4805
2016-08-14T01:27:00.095Z,0.4805
2016-08-14T01:27:13.453Z,0.4805
2016-08-14T01:27:26.820Z,0.47557
2016-08-14T01:27:40.941Z,0.47557
2016-08-14T01:27:53.558Z,0.47557
2016-08-14T01:28:06.181Z,0.49532
2016-08-14T01:28:21.046Z,0.47557
2016-08-14T01:28:34.415Z,0.47557
2016-08-14T01:28:47.021Z,0.47557
2016-08-14T01:29:00.390Z,0.47557
2016-08-14T01:29:12.995Z,0.47557
2016-08-14T01:29:25.603Z,0.47557
2016-08-14T01:29:40.476Z,0.47557
2016-08-14T01:29:54.602Z,0.47557
2016-08-14T01:30:07.226Z,0.49532
2016-08-14T01:30:19.110Z,0.47063
2016-08-14T01:30:31.741Z,0.47063
2016-08-14T01:30:43.626Z,0.47063
2016-08-14T01:30:57.756Z,0.48544
2016-08-14T01:31:12.630Z,0.47063
2016-08-14T01:31:25.247Z,0.47063
2016-08-14T01:31:37.132Z,0.47063
2016-08-14T01:31:52.005Z,0.49038
2016-08-14T01:32:06.125Z,0.47557
2016-08-14T01:32:18.021Z,0.4805
2016-08-14T01:32:30.632Z,0.48544
2016-08-14T01:32:44.749Z,0.48544
2016-08-14T01:32:56.608Z,0.49038
2016-08-14T01:33:11.475Z,0.49532
2016-08-14T01:33:24.862Z,0.49532
2016-08-14T01:33:39.734Z,0.49532
2016-08-14T01:33:53.887Z,0.49532
2016-08-14T01:34:07.281Z,0.49532
2016-08-14T01:34:19.149Z,0.49532
2016-08-14T01:34:31.024Z,0.50026
2016-08-14T01:34:44.418Z,0.50026
2016-08-14T01:34:57.058Z,0.50026
2016-08-14T01:35:11.181Z,0.50026
2016-08-14T01:35:26.064Z,0.50519
2016-08-14T01:35:38.701Z,0.50519
2016-08-14T01:35:53.567Z,0.50519
2016-08-14T01:36:07.687Z,0.50026
2016-08-14T01:36:22.547Z,0.49532
2016-08-14T01:36:37.437Z,0.49038
2016-08-14T01:36:52.310Z,0.49038
2016-08-14T01:37:05.677Z,0.48544
2016-08-14T01:37:18.291Z,0.49038
2016-08-14T01:37:31.679Z,0.48544
2016-08-14T01:37:44.309Z,0.48544
2016-08-14T01:37:56.172Z,0.48544
2016-08-14T01:38:06.554Z,0.48544
2016-08-14T01:38:21.418Z,0.48544
2016-08-14T01:38:37.041Z,0.48544
2016-08-14T01:38:51.162Z,0.48544
2016-08-14T01:39:05.284Z,0.4805
2016-08-14T01:39:19.408Z,0.4805
2016-08-14T01:39:32.028Z,0.4805
2016-08-14T01:39:46.144Z,0.4805
2016-08-14T01:39:58.757Z,0.4805
2016-08-14T01:40:14.372Z,0.4805
2016-08-14T01:40:26.253Z,0.4805
2016-08-14T01:40:39.615Z,0.4805
2016-08-14T01:40:52.987Z,0.49532
2016-08-14T01:41:07.859Z,0.47557
2016-08-14T01:41:21.984Z,0.47557
2016-08-14T01:41:34.614Z,0.47557
2016-08-14T01:41:47.988Z,0.47063
2016-08-14T01:42:00.596Z,0.47063
2016-08-14T01:42:13.956Z,0.47063
2016-08-14T01:42:25.099Z,0.47063
2016-08-14T01:42:40.718Z,0.47063
2016-08-14T01:42:55.608Z,0.47557
2016-08-14T01:43:08.242Z,0.4805
2016-08-14T01:43:18.614Z,0.4805
2016-08-14T01:43:32.748Z,0.4805
2016-08-14T01:43:44.612Z,0.4805
2016-08-14T01:43:57.216Z,0.4805
2016-08-14T01:44:07.587Z,0.4805
2016-08-14T01:44:18.714Z,0.47557
2016-08-14T01:44:32.835Z,0.47557
2016-08-14T01:44:46.945Z,0.47063
2016-08-14T01:45:02.573Z,0.47063
2016-08-14T01:45:15.931Z,0.47063
2016-08-14T01:45:30.796Z,0.47063
2016-08-14T01:45:43.408Z,0.47063
2016-08-14T01:45:58.272Z,0.47063
2016-08-14T01:46:10.159Z,0.47063
2016-08-14T01:46:23.540Z,0.47063
2016-08-14T01:46:36.925Z,0.47063
2016-08-14T01:46:49.549Z,0.47063
2016-08-14T01:47:02.167Z,0.49038
2016-08-14T01:47:16.291Z,0.47063
2016-08-14T01:47:28.897Z,0.47063
2016-08-14T01:47:42.262Z,0.47063
2016-08-14T01:47:54.866Z,0.47063
2016-08-14T01:48:10.487Z,0.46569
2016-08-14T01:48:25.385Z,0.46076
2016-08-14T01:48:40.259Z,0.46569
2016-08-14T01:48:52.891Z,0.46076
2016-08-14T01:49:07.747Z,0.46076
2016-08-14T01:49:20.382Z,0.46076
2016-08-14T01:49:35.254Z,0.45582
2016-08-14T01:49:48.629Z,0.45582
2016-08-14T01:50:02.746Z,0.45088
2016-08-14T01:50:16.884Z,0.45088
2016-08-14T01:50:29.512Z,0.45088
2016-08-14T01:50:44.377Z,0.45088
2016-08-14T01:50:57.759Z,0.47063
2016-08-14T01:51:10.383Z,0.44595
2016-08-14T01:51:23.786Z,0.44595
2016-08-14T01:51:37.894Z,0.44595
2016-08-14T01:51:51.287Z,0.44595
2016-08-14T01:52:03.933Z,0.44595
2016-08-14T01:52:18.040Z,0.46569
2016-08-14T01:52:31.402Z,0.44102
2016-08-14T01:52:43.290Z,0.44102
2016-08-14T01:52:55.929Z,0.43608
2016-08-14T01:53:07.787Z,0.43608
2016-08-14T01:53:20.433Z,0.43608
2016-08-14T01:53:34.546Z,0.43115
2016-08-14T01:53:47.908Z,0.43115
2016-08-14T01:54:02.028Z,0.43115
2016-08-14T01:54:13.904Z,0.43115
2016-08-14T01:54:25.041Z,0.43608
2016-08-14T01:54:39.910Z,0.43608
2016-08-14T01:54:54.039Z,0.43608
2016-08-14T01:55:06.665Z,0.44102
2016-08-14T01:55:19.304Z,0.44102
2016-08-14T01:55:32.665Z,0.44595
2016-08-14T01:55:47.534Z,0.44595
2016-08-14T01:56:01.652Z,0.44595
2016-08-14T01:56:15.767Z,0.45088
2016-08-14T01:56:29.876Z,0.44595
2016-08-14T01:56:41.767Z,0.45088
2016-08-14T01:56:55.880Z,0.45088
2016-08-14T01:57:10.001Z,0.45088
2016-08-14T01:57:24.881Z,0.45088
2016-08-14T01:57:39.740Z,0.45088
2016-08-14T01:57:53.112Z,0.45088
2016-08-14T01:58:05.726Z,0.45088
2016-08-14T01:58:19.858Z,0.45582
2016-08-14T01:58:33.225Z,0.45582
2016-08-14T01:58:47.340Z,0.45582
2016-08-14T01:59:02.227Z,0.45582
2016-08-14T01:59:15.594Z,0.45582
2016-08-14T01:59:28.242Z,0.45582
2016-08-14T01:59:43.123Z,0.45582
2016-08-14T01:59:57.232Z,0.45582
2016-08-14T02:00:09.841Z,0.45582
2016-08-14T02:00:23.213Z,0.45582
2016-08-14T02:00:38.085Z,0.45582
2016-08-14T02:00:50.688Z,0.45582
2016-08-14T02:01:04.795Z,0.45582
2016-08-14T02:01:18.156Z,0.45582
2016-08-14T02:01:30.017Z,0.45582
2016-08-14T02:01:42.653Z,0.45088
2016-08-14T02:01:56.054Z,0.45088
2016-08-14T02:02:10.176Z,0.45088
2016-08-14T02:02:23.542Z,0.45088
2016-08-14T02:02:36.925Z,0.45088
2016-08-14T02:02:51.791Z,0.45088
2016-08-14T02:03:04.403Z,0.45088
2016-08-14T02:03:15.507Z,0.45088
2016-08-14T02:03:29.629Z,0.45088
2016-08-14T02:03:42.261Z,0.45582
2016-08-14T02:03:54.122Z,0.45582
2016-08-14T02:04:07.498Z,0.45582
2016-08-14T02:04:22.365Z,0.46076
2016-08-14T02:04:34.243Z,0.46076
2016-08-14T02:04:49.875Z,0.46076
2016-08-14T02:05:03.982Z,0.45582
2016-08-14T02:05:16.610Z,0.46076
2016-08-14T02:05:30.733Z,0.46076
2016-08-14T02:05:44.849Z,0.46076
2016-08-14T02:05:57.461Z,0.46076
2016-08-14T02:06:11.568Z,0.46076
2016-08-14T02:06:25.694Z,0.46076
2016-08-14T02:06:40.559Z,0.46076
2016-08-14T02:06:55.420Z,0.46076
2016-08-14T02:07:08.029Z,0.46076
2016-08-14T02:07:21.408Z,0.46076
2016-08-14T02:07:33.288Z,0.48544
2016-08-14T02:07:46.637Z,0.46076
2016-08-14T02:08:01.497Z,0.46076
2016-08-14T02:08:17.113Z,0.46076
2016-08-14T02:08:31.217Z,0.46569
2016-08-14T02:08:43.830Z,0.46569
2016-08-14T02:08:56.468Z,0.46076
2016-08-14T02:09:09.841Z,0.46569
2016-08-14T02:09:23.965Z,0.46569
2016-08-14T02:09:39.595Z,0.46569
2016-08-14T02:09:53.711Z,0.46569
2016-08-14T02:10:08.573Z,0.46569
2016-08-14T02:10:19.742Z,0.46569
2016-08-14T02:10:33.105Z,0.46076
2016-08-14T02:10:47.978Z,0.46076
2016-08-14T02:11:02.852Z,0.46076
2016-08-14T02:11:15.497Z,0.46076
2016-08-14T02:11:28.867Z,0.46076
2016-08-14T02:11:41.483Z,0.46076
2016-08-14T02:11:54.098Z,0.46076
2016-08-14T02:12:07.473Z,0.46076
2016-08-14T02:12:20.114Z,0.45582
2016-08-14T02:12:34.223Z,0.45582
2016-08-14T02:12:48.340Z,0.45582
2016-08-14T02:13:01.711Z,0.45582
2016-08-14T02:13:12.835Z,0.45582
2016-08-14T02:13:27.704Z,0.45582
2016-08-14T02:13:42.570Z,0.45582
2016-08-14T02:13:55.937Z,0.45582
2016-08-14T02:14:10.808Z,0.45582
2016-08-14T02:14:24.199Z,0.46076
2016-08-14T02:14:39.082Z,0.46076
2016-08-14T02:14:51.706Z,0.46076
2016-08-14T02:15:05.117Z,0.46076
2016-08-14T02:15:17.722Z,0.46076
2016-08-14T02:15:30.336Z,0.46076
2016-08-14T02:15:45.956Z,0.46076
2016-08-14T02:15:58.554Z,0.46076
2016-08-14T02:16:11.183Z,0.46076
2016-08-14T02:16:23.802Z,0.46076
2016-08-14T02:16:37.171Z,0.45582
2016-08-14T02:16:51.283Z,0.45582
2016-08-14T02:17:03.904Z,0.46076
2016-08-14T02:17:18.024Z,0.45582
2016-08-14T02:17:30.631Z,0.45582
2016-08-14T02:17:44.024Z,0.45582
2016-08-14T02:17:57.399Z,0.45582
2016-08-14T02:18:10.788Z,0.45582
2016-08-14T02:18:24.189Z,0.45582
2016-08-14T02:18:38.311Z,0.45088
2016-08-14T02:18:50.940Z,0.45088
2016-08-14T02:19:05.046Z,0.45088
2016-08-14T02:19:18.432Z,0.45088
2016-08-14T02:19:33.304Z,0.45088
2016-08-14T02:19:48.162Z,0.44102
2016-08-14T02:20:03.032Z,0.44595
2016-08-14T02:20:16.405Z,0.44595
2016-08-14T02:20:30.516Z,0.44595
2016-08-14T02:20:43.128Z,0.44102
2016-08-14T02:20:57.240Z,0.44102
2016-08-14T02:21:11.354Z,0.44102
2016-08-14T02:21:25.464Z,0.44102
2016-08-14T02:21:37.339Z,0.44595
2016-08-14T02:21:51.447Z,0.44595
2016-08-14T02:22:05.560Z,0.45088
2016-08-14T02:22:20.432Z,0.44595
2016-08-14T02:22:33.829Z,0.46569
2016-08-14T02:22:47.216Z,0.44102
2016-08-14T02:22:59.851Z,0.44102
2016-08-14T02:23:13.983Z,0.44102
2016-08-14T02:23:27.347Z,0.44102
2016-08-14T02:23:40.706Z,0.44102
2016-08-14T02:23:53.341Z,0.44102
2016-08-14T02:24:08.203Z,0.43608
2016-08-14T02:24:22.334Z,0.43115
2016-08-14T02:24:33.457Z,0.45582
2016-08-14T02:24:46.817Z,0.43115
2016-08-14T02:24:58.679Z,0.43115
2016-08-14T02:25:13.544Z,0.43115
2016-08-14T02:25:27.676Z,0.43115
2016-08-14T02:25:39.566Z,0.43115
2016-08-14T02:25:52.192Z,0.43115
2016-08-14T02:26:07.066Z,0.43608
2016-08-14T02:26:19.687Z,0.44102
2016-08-14T02:26:33.809Z,0.44102
2016-08-14T02:26:48.665Z,0.44102
2016-08-14T02:27:01.276Z,0.44595
2016-08-14T02:27:12.396Z,0.45088
2016-08-14T02:27:27.269Z,0.45088
2016-08-14T02:27:39.913Z,0.45088
2016-08-14T02:27:51.027Z,0.45088
2016-08-14T02:28:05.172Z,0.45088
2016-08-14T02:28:16.310Z,0.45582
2016-08-14T02:28:30.421Z,0.45582
2016-08-14T02:28:44.542Z,0.45582
2016-08-14T02:28:57.155Z,0.45582
2016-08-14T02:29:10.519Z,0.45582
2016-08-14T02:29:24.650Z,0.45582
2016-08-14T02:29:38.769Z,0.45582
2016-08-14T02:29:53.631Z,0.45582
2016-08-14T02:30:07.744Z,0.45582
2016-08-14T02:30:21.878Z,0.45582
2016-08-14T02:30:34.516Z,0.45582
2016-08-14T02:30:48.644Z,0.45582
2016-08-14T02:31:00.546Z,0.45582
2016-08-14T02:31:13.905Z,0.45582
2016-08-14T02:31:26.532Z,0.45582
2016-08-14T02:31:39.157Z,0.45088
2016-08-14T02:31:53.268Z,0.45088
2016-08-14T02:32:08.144Z,0.45088
2016-08-14T02:32:22.277Z,0.45088
2016-08-14T02:32:32.649Z,0.45088
2016-08-14T02:32:44.522Z,0.47557
2016-08-14T02:32:56.403Z,0.45088
2016-08-14T02:33:09.799Z,0.45088
2016-08-14T02:33:22.418Z,0.45582
2016-08-14T02:33:34.302Z,0.45582
2016-08-14T02:33:47.669Z,0.45582
2016-08-14T02:33:59.554Z,0.45582
2016-08-14T02:34:11.462Z,0.45582
2016-08-14T02:34:26.333Z,0.45582
2016-08-14T02:34:38.931Z,0.45582
2016-08-14T02:34:54.553Z,0.45582
2016-08-14T02:35:07.917Z,0.45582
2016-08-14T02:35:22.029Z,0.4805
2016-08-14T02:35:36.892Z,0.45582
2016-08-14T02:35:51.753Z,0.45582
2016-08-14T02:36:05.117Z,0.45582
2016-08-14T02:36:19.990Z,0.45582
2016-08-14T02:36:33.347Z,0.45582
2016-08-14T02:36:44.450Z,0.45582
2016-08-14T02:36:58.588Z,0.45582
2016-08-14T02:37:12.703Z,0.45582
2016-08-14T02:37:27.566Z,0.45088
2016-08-14T02:37:40.959Z,0.47557
2016-08-14T02:37:53.605Z,0.45582
2016-08-14T02:38:07.719Z,0.45582
2016-08-14T02:38:19.596Z,0.46076
2016-08-14T02:38:32.213Z,0.46076
2016-08-14T02:38:46.334Z,0.46076
2016-08-14T02:38:58.966Z,0.46076
2016-08-14T02:39:13.828Z,0.45582
2016-08-14T02:39:28.708Z,0.45582
2016-08-14T02:39:42.087Z,0.46076
2016-08-14T02:39:54.705Z,0.46076
2016-08-14T02:40:08.092Z,0.46076
2016-08-14T02:40:20.699Z,0.46569
2016-08-14T02:40:33.326Z,0.46076
2016-08-14T02:40:46.705Z,0.46569
2016-08-14T02:41:00.838Z,0.46569
2016-08-14T02:41:16.460Z,0.47063
2016-08-14T02:41:30.573Z,0.47063
2016-08-14T02:41:43.182Z,0.46569
2016-08-14T02:41:56.541Z,0.46076
2016-08-14T02:42:09.185Z,0.46076
2016-08-14T02:42:24.827Z,0.45582
2016-08-14T02:42:39.686Z,0.45582
2016-08-14T02:42:53.037Z,0.45582
2016-08-14T02:43:06.402Z,0.46076
2016-08-14T02:43:21.272Z,0.45582
2016-08-14T02:43:35.403Z,0.45582